createdAt,value
2022-10-08T00:00:10.017Z,0
2022-10-08T00:05:27.334Z,0
2022-10-08T00:10:44.930Z,0
2022-10-08T00:16:02.152Z,0
2022-10-08T00:21:19.594Z,0
2022-10-08T00:26:41.281Z,0
2022-10-08T00:32:00.311Z,0
2022-10-08T00:37:17.662Z,0
2022-10-08T00:42:34.977Z,0
2022-10-08T00:47:52.391Z,0
2022-10-08T00:53:09.960Z,0
2022-10-08T00:58:48.465Z,0
2022-10-08T01:04:06.194Z,0
2022-10-08T01:09:39.633Z,0
2022-10-08T01:14:57.429Z,0
2022-10-08T01:20:14.881Z,0
2022-10-08T01:25:32.480Z,0
2022-10-08T01:30:59.043Z,0
2022-10-08T01:41:27.083Z,0
2022-10-08T01:46:45.008Z,0
2022-10-08T01:52:02.169Z,0
2022-10-08T02:02:45.031Z,0
2022-10-08T02:08:02.659Z,0
2022-10-08T02:13:20.012Z,0
2022-10-08T02:24:01.202Z,0
2022-10-08T02:29:18.468Z,0
2022-10-08T02:34:36.020Z,0
2022-10-08T02:39:53.525Z,0
2022-10-08T02:45:10.852Z,0
2022-10-08T02:50:28.650Z,0
2022-10-08T02:55:45.956Z,0
2022-10-08T03:01:06.342Z,0
2022-10-08T03:06:23.640Z,0
2022-10-08T03:11:41.135Z,0
2022-10-08T03:22:21.193Z,0
2022-10-08T03:27:38.402Z,0
2022-10-08T03:32:57.717Z,0
2022-10-08T03:38:15.901Z,0
2022-10-08T03:43:33.324Z,0
2022-10-08T03:48:51.082Z,0
2022-10-08T03:54:08.613Z,0
2022-10-08T04:05:15.356Z,0
2022-10-08T04:10:35.480Z,0
2022-10-08T04:15:52.689Z,0
2022-10-08T04:21:10.120Z,0
2022-10-08T04:26:27.415Z,0
2022-10-08T04:31:44.820Z,0
2022-10-08T04:37:22.830Z,0
2022-10-08T04:42:40.143Z,0
2022-10-08T04:47:57.703Z,0
2022-10-08T04:53:17.098Z,0
2022-10-08T05:04:29.300Z,0
2022-10-08T05:09:46.564Z,0
2022-10-08T05:15:04.071Z,0
2022-10-08T05:20:21.287Z,0.7
2022-10-08T05:25:38.645Z,2.2
2022-10-08T05:30:55.814Z,0.5
2022-10-08T05:36:13.146Z,55
2022-10-08T05:41:29.971Z,91.2
2022-10-08T05:46:47.026Z,143.3
2022-10-08T05:52:04.106Z,227.1
2022-10-08T05:57:21.183Z,356.3
2022-10-08T06:02:38.220Z,409.2
2022-10-08T06:07:58.410Z,392.5
2022-10-08T06:13:18.619Z,335.4
2022-10-08T06:23:56.130Z,470.8
2022-10-08T06:29:13.062Z,768.3
2022-10-08T06:34:30.282Z,1139.6
2022-10-08T06:39:48.603Z,756.7
2022-10-08T06:45:05.774Z,1127.1
2022-10-08T06:50:22.971Z,1230.8
2022-10-08T06:55:42.393Z,1375
2022-10-08T07:00:59.545Z,1072.5
2022-10-08T07:06:16.637Z,3090
2022-10-08T07:11:33.607Z,804.2
2022-10-08T07:16:50.962Z,4473.7
2022-10-08T07:22:08.322Z,2251.3
2022-10-08T07:27:46.143Z,2906.7
2022-10-08T07:33:03.731Z,3778.3
2022-10-08T07:38:22.606Z,14509.2
2022-10-08T07:43:40.528Z,9102.5
2022-10-08T07:48:56.046Z,9339.2
2022-10-08T08:04:54.478Z,12073.7
2022-10-08T08:10:29.763Z,7799.2
2022-10-08T08:15:45.590Z,11715.8
2022-10-08T08:21:03.428Z,13731.2
2022-10-08T08:26:22.862Z,13207.1
2022-10-08T08:31:39.846Z,10638.3
2022-10-08T08:36:57.246Z,15883.7
2022-10-08T08:42:12.969Z,3680
2022-10-08T08:47:28.994Z,8924.6
2022-10-08T08:52:45.051Z,10052.1
2022-10-08T08:58:07.270Z,16847.9
2022-10-08T09:03:28.366Z,8599.2
2022-10-08T09:08:47.574Z,11598.8
2022-10-08T09:14:05.780Z,7232.1
2022-10-08T09:19:20.863Z,9993.3
2022-10-08T09:24:40.206Z,13800.8
2022-10-08T09:29:58.086Z,20650.8
2022-10-08T09:35:18.015Z,26020
2022-10-08T09:40:36.409Z,24990.4
2022-10-08T09:45:52.533Z,5920.8
2022-10-08T09:51:11.134Z,23101.3
2022-10-08T09:56:29.769Z,28372.5
2022-10-08T10:01:47.357Z,31002.5
2022-10-08T10:07:14.389Z,6208.3
2022-10-08T10:12:30.899Z,4966.7
2022-10-08T10:18:04.431Z,21232.1
2022-10-08T10:29:33.947Z,26673.3
2022-10-08T10:34:49.073Z,8000
2022-10-08T10:40:04.281Z,3931.7
2022-10-08T10:45:23.501Z,3457.9
2022-10-08T10:50:39.972Z,3425.4
2022-10-08T10:55:56.415Z,3286.7
2022-10-08T11:01:20.493Z,21200.4
2022-10-08T11:06:39.681Z,21060
2022-10-08T11:11:58.785Z,27709.2
2022-10-08T11:22:46.788Z,28827.5
2022-10-08T11:28:03.987Z,10255
2022-10-08T11:38:37.779Z,3398.8
2022-10-08T11:45:27.670Z,3852.1
2022-10-08T11:50:47.688Z,21143.8
2022-10-08T11:56:06.278Z,20085.4
2022-10-08T12:13:20.717Z,4152.1
2022-10-08T12:48:07.827Z,3310.4
2022-10-08T12:53:30.271Z,3378.3
2022-10-08T12:58:46.269Z,3670.4
2022-10-08T13:04:05.957Z,12662.5
2022-10-08T13:26:26.663Z,12085.4
2022-10-08T13:31:44.234Z,13186.2
2022-10-08T13:37:01.756Z,14508.7
2022-10-08T13:42:19.611Z,14932.5
2022-10-08T13:47:36.661Z,10232.5
2022-10-08T14:05:13.132Z,9963.7
2022-10-08T14:10:29.933Z,8744.2
2022-10-08T14:15:46.586Z,9314.6
2022-10-08T14:21:24.612Z,11274.2
2022-10-08T14:26:42.261Z,10523.7
2022-10-08T14:32:01.305Z,7902.9
2022-10-08T14:37:17.372Z,4644.2
2022-10-08T14:42:32.845Z,3192.1
2022-10-08T14:47:48.978Z,2789.6
2022-10-08T14:53:05.461Z,2511.3
2022-10-08T14:58:22.534Z,2214.2
2022-10-08T15:03:42.516Z,2092.5
2022-10-08T15:08:59.610Z,2038.8
2022-10-08T15:19:36.124Z,1954.6
2022-10-08T15:24:53.210Z,1941.7
2022-10-08T15:30:12.294Z,1905.8
2022-10-08T15:35:29.543Z,1830.4
2022-10-08T15:40:46.587Z,1973.7
2022-10-08T15:46:04.008Z,1897.1
2022-10-08T15:51:30.114Z,1596.3
2022-10-08T15:56:46.918Z,1512.9
2022-10-08T16:02:04.041Z,1419.2
2022-10-08T16:07:21.084Z,1321.2
2022-10-08T16:12:40.494Z,1236.2
2022-10-08T16:18:00.352Z,1127.9
2022-10-08T16:28:34.735Z,893.7
2022-10-08T16:33:56.352Z,768.7
2022-10-08T16:39:13.431Z,621.2
2022-10-08T16:49:50.163Z,355.4
2022-10-08T16:55:13.744Z,239.6
2022-10-08T17:00:30.679Z,145.8
2022-10-08T17:05:47.732Z,79.6
2022-10-08T17:11:04.679Z,36.2
2022-10-08T17:16:21.964Z,14.9
2022-10-08T17:21:39.276Z,0
2022-10-08T17:26:56.661Z,0
2022-10-08T17:37:34.588Z,0.1
2022-10-08T17:42:51.957Z,0
2022-10-08T17:48:09.222Z,0
2022-10-08T17:53:26.860Z,0
2022-10-08T17:58:47.659Z,0
2022-10-08T18:04:05.061Z,0
2022-10-08T18:09:22.361Z,0
2022-10-08T18:14:40.446Z,0
2022-10-08T18:19:57.577Z,0
2022-10-08T18:25:15.260Z,0
2022-10-08T18:30:42.933Z,0
2022-10-08T18:36:00.657Z,0
2022-10-08T18:41:18.617Z,0
2022-10-08T18:46:35.971Z,0
2022-10-08T18:51:53.410Z,0
2022-10-08T18:57:10.905Z,0
2022-10-08T19:02:28.289Z,0
2022-10-08T19:07:45.503Z,0
2022-10-08T19:13:02.829Z,0
2022-10-08T19:18:20.684Z,0
2022-10-08T19:28:49.455Z,0
2022-10-08T19:34:06.925Z,0
2022-10-08T19:39:24.636Z,0
2022-10-08T19:44:42.248Z,0
2022-10-08T19:50:00.374Z,0
2022-10-08T19:55:17.572Z,0
2022-10-08T20:00:35.235Z,0
2022-10-08T20:05:52.830Z,0
2022-10-08T20:11:10.918Z,0
2022-10-08T20:16:28.673Z,0
2022-10-08T20:21:45.883Z,0
2022-10-08T20:27:06.212Z,0
2022-10-08T20:32:23.347Z,0
2022-10-08T20:37:40.743Z,0
2022-10-08T20:42:58.541Z,0
2022-10-08T20:48:15.906Z,0
2022-10-08T20:53:33.134Z,0
2022-10-08T20:58:50.353Z,0
2022-10-08T21:04:08.016Z,0
2022-10-08T21:14:46.425Z,0
2022-10-08T21:20:03.631Z,0
2022-10-08T21:25:20.934Z,0
2022-10-08T21:30:38.226Z,0
2022-10-08T21:36:06.832Z,0
2022-10-08T21:46:48.541Z,0
2022-10-08T21:52:06.047Z,0
2022-10-08T21:57:23.503Z,0
2022-10-08T22:02:40.719Z,0
2022-10-08T22:07:58.276Z,0
2022-10-08T22:13:20.823Z,0
2022-10-08T22:18:38.648Z,0
2022-10-08T22:23:56.224Z,0
2022-10-08T22:29:13.445Z,0
2022-10-08T22:39:50.729Z,0
2022-10-08T22:45:07.629Z,0
2022-10-08T22:50:24.807Z,0
2022-10-08T23:00:52.027Z,0
2022-10-08T23:06:09.268Z,0
2022-10-08T23:11:26.573Z,0
2022-10-08T23:16:43.824Z,0
2022-10-08T23:22:01.120Z,0
2022-10-08T23:27:18.682Z,0
2022-10-08T23:32:36.021Z,0
2022-10-08T23:38:03.635Z,0
2022-10-08T23:43:23.063Z,0
2022-10-08T23:48:40.699Z,0
2022-10-08T23:59:15.164Z,0
